Time;durP1;ratioP1;P1;durP2;ratioP2;P2;SDS_P1;SDS_P2;PMS_P1;PMS_P2;Temp;Humidity;BMP_temperature;BMP_pressure;BME280_temperature;BME280_humidity;BME280_pressure;Samples;Min_cycle;Max_cycle;Signal;HPM_P1;HPM_P2
2021/06/03 14:50:11;;;;;;;0.77;0.77;;;;;;;22.97;36.86;99210.28;4583180;27;15093346;-84
2021/06/03 14:52:42;;;;;;;;;;;;;;;22.81;36.38;99219.47;5116741;28;20031;-80
2021/06/03 14:55:11;;;;;;;3.90;1.55;;;;;;;22.74;37.02;99180.53;5118301;28;19942;-83
2021/06/03 14:57:39;;;;;;;0.15;0.15;;;;;;;22.72;35.44;99169.00;5119494;28;20030;-82
2021/06/03 15:00:11;;;;;;;0.40;0.40;;;;;;;22.86;35.31;99186.94;5115475;28;20074;-81
2021/06/03 15:02:39;;;;;;;1.27;0.40;;;;;;;23.31;35.22;99211.13;5116065;28;20422;-81
2021/06/03 15:05:06;;;;;;;0.40;0.40;;;;;;;23.42;35.33;99196.25;5114683;28;20555;-81
2021/06/03 15:07:33;;;;;;;0.93;0.47;;;;;;;23.35;36.14;99220.09;5132348;28;20453;-81
2021/06/03 15:09:58;;;;;;;0.22;0.22;;;;;;;23.22;36.61;99202.91;5114305;28;20114;-82
2021/06/03 15:12:24;;;;;;;1.65;0.28;;;;;;;22.80;37.01;99200.25;5113914;28;20114;-83
2021/06/03 15:14:50;;;;;;;2.47;1.23;;;;;;;22.64;37.21;99210.19;5114138;28;20027;-82
2021/06/03 15:17:15;;;;;;;0.30;0.30;;;;;;;22.63;35.60;99203.00;5114267;28;20061;-79
2021/06/03 15:19:41;;;;;;;0.20;0.20;;;;;;;22.33;37.15;99155.53;5114220;28;20034;-81
2021/06/03 15:22:09;;;;;;;0.10;0.10;;;;;;;22.47;37.17;99173.50;5113428;28;20578;-82
2021/06/03 15:24:34;;;;;;;0.30;0.30;;;;;;;22.62;37.58;99190.97;5113148;28;20085;-79
2021/06/03 15:27:00;;;;;;;0.10;0.10;;;;;;;22.47;37.62;99227.00;5105197;28;20027;-81
2021/06/03 15:29:26;;;;;;;0.47;0.47;;;;;;;22.06;37.96;99167.41;5092701;28;20027;-80
2021/06/03 15:31:51;;;;;;;0.30;0.30;;;;;;;22.51;36.75;99235.22;5092995;28;20048;-80
2021/06/03 15:34:17;;;;;;;4.30;1.75;;;;;;;22.37;37.93;99191.09;5093026;28;20042;-82
2021/06/03 15:36:42;;;;;;;0.10;0.10;;;;;;;22.40;37.47;99219.03;5093462;28;20475;-81
2021/06/03 15:39:11;;;;;;;0.28;0.28;;;;;;;22.27;38.31;99202.59;5092883;28;20471;-83
2021/06/03 15:41:36;;;;;;;0.38;0.38;;;;;;;22.32;38.12;99226.41;5093163;28;20028;-82
2021/06/03 15:44:02;;;;;;;0.20;0.20;;;;;;;21.98;38.36;99166.38;5093251;28;20039;-83
2021/06/03 15:46:27;;;;;;;0.10;0.10;;;;;;;22.02;37.32;99154.88;5102494;28;20024;-81
2021/06/03 15:48:53;;;;;;;0.47;0.47;;;;;;;22.33;38.60;99191.34;5107758;28;20029;-83
2021/06/03 15:51:19;;;;;;;0.20;0.20;;;;;;;22.12;37.61;99209.69;5097072;28;20475;-82
2021/06/03 15:53:46;;;;;;;1.52;0.88;;;;;;;21.49;38.78;99157.06;5092522;28;20036;-82
2021/06/03 15:56:13;;;;;;;1.20;0.98;;;;;;;21.87;39.07;99214.88;5090627;28;20024;-81
2021/06/03 15:58:38;;;;;;;0.32;0.32;;;;;;;21.60;38.97;99192.16;5090097;28;20016;-80
2021/06/03 16:01:05;;;;;;;0.30;0.30;;;;;;;21.62;39.15;99193.22;5078594;28;20035;-80
2021/06/03 16:03:32;;;;;;;0.80;0.20;;;;;;;21.71;38.97;99204.25;5075004;28;20024;-80
2021/06/03 16:05:58;;;;;;;0.17;0.17;;;;;;;21.97;39.66;99251.28;5075341;28;20032;-79
2021/06/03 16:08:24;;;;;;;0.25;0.25;;;;;;;22.03;39.61;99271.78;5074930;28;20021;-80
2021/06/03 16:10:50;;;;;;;0.10;0.10;;;;;;;21.87;39.56;99233.78;5075405;28;20033;-80
2021/06/03 16:13:16;;;;;;;0.25;0.25;;;;;;;21.94;39.50;99281.91;5075082;28;20582;-79
2021/06/03 16:15:41;;;;;;;0.63;0.47;;;;;;;21.31;39.39;99201.63;5075034;28;20036;-79
2021/06/03 16:18:07;;;;;;;0.85;0.55;;;;;;;21.60;40.52;99259.66;5075248;28;20024;-78
2021/06/03 16:20:35;;;;;;;0.75;0.70;;;;;;;21.61;40.17;99273.22;5074816;28;20024;-81
2021/06/03 16:23:04;;;;;;;0.30;0.30;;;;;;;21.70;41.80;99284.28;5074692;28;20025;-79
2021/06/03 16:25:29;;;;;;;0.10;0.10;;;;;;;21.38;39.92;99279.91;5074235;28;20032;-77
2021/06/03 16:27:56;;;;;;;0.98;0.70;;;;;;;21.26;42.15;99248.09;5074207;28;20027;-77
2021/06/03 16:30:28;;;;;;;0.45;0.45;;;;;;;21.56;42.83;99284.41;5074779;28;20028;-79
2021/06/03 16:32:56;;;;;;;0.25;0.25;;;;;;;21.52;43.22;99290.25;5074391;28;20059;-79
2021/06/03 16:35:25;;;;;;;0.52;0.52;;;;;;;21.17;43.07;99273.56;5074460;28;20174;-78
2021/06/03 16:37:50;;;;;;;0.25;0.25;;;;;;;21.23;43.19;99299.69;5074725;28;20024;-81
2021/06/03 16:40:16;;;;;;;0.15;0.15;;;;;;;21.21;42.61;99301.44;5074352;28;20454;-77
2021/06/03 16:42:41;;;;;;;0.17;0.17;;;;;;;21.02;42.92;99304.53;5074366;28;20025;-76
2021/06/03 16:45:10;;;;;;;0.30;0.30;;;;;;;20.98;43.09;99301.16;5077439;28;20059;-82
2021/06/03 16:47:36;;;;;;;0.40;0.40;;;;;;;21.01;43.71;99317.03;5078348;28;20025;-82
2021/06/03 16:50:01;;;;;;;0.85;0.85;;;;;;;20.95;44.17;99313.38;5077210;28;20062;-83
2021/06/03 16:52:27;;;;;;;0.77;0.77;;;;;;;20.79;44.05;99322.38;5082774;28;20070;-81
2021/06/03 16:54:53;;;;;;;0.20;0.20;;;;;;;20.76;44.51;99316.97;5070689;28;20067;-82
2021/06/03 16:57:19;;;;;;;0.20;0.20;;;;;;;20.66;44.02;99330.38;5087431;28;20502;-83
2021/06/03 16:59:44;;;;;;;1.13;0.47;;;;;;;20.66;44.30;99336.78;5073790;28;20082;-83
2021/06/03 17:02:10;;;;;;;0.28;0.28;;;;;;;20.39;43.96;99302.69;5075350;28;20028;-82
2021/06/03 17:04:35;;;;;;;0.20;0.20;;;;;;;20.51;44.48;99330.41;5073906;28;20493;-81
2021/06/03 17:07:01;;;;;;;1.65;1.20;;;;;;;20.55;45.02;99338.66;5074545;28;20102;-83
2021/06/03 17:09:27;;;;;;;0.10;0.10;;;;;;;20.49;45.58;99340.59;5074871;28;20023;-78
2021/06/03 17:11:52;;;;;;;0.50;0.50;;;;;;;20.22;45.92;99319.25;5071207;28;20157;-81
2021/06/03 17:14:18;;;;;;;0.45;0.45;;;;;;;20.26;46.85;99343.03;5073057;28;20025;-81
2021/06/03 17:16:47;;;;;;;0.38;0.38;;;;;;;19.99;46.38;99312.53;5073287;28;20033;-81
2021/06/03 17:19:13;;;;;;;0.30;0.30;;;;;;;19.80;46.85;99303.53;5073693;28;20024;-81
2021/06/03 17:21:40;;;;;;;0.85;0.52;;;;;;;19.85;47.19;99325.28;5073244;28;20033;-80
2021/06/03 17:24:07;;;;;;;1.15;0.73;;;;;;;19.89;47.53;99336.34;5073038;28;20028;-80
2021/06/03 17:26:33;;;;;;;0.40;0.40;;;;;;;19.90;48.52;99363.09;5073071;28;20032;-81
2021/06/03 17:28:58;;;;;;;0.60;0.60;;;;;;;19.88;48.70;99362.84;5072996;28;20120;-80
2021/06/03 17:31:24;;;;;;;0.25;0.20;;;;;;;19.69;49.64;99341.84;5072330;28;20576;-81
2021/06/03 17:33:49;;;;;;;0.20;0.20;;;;;;;19.78;50.44;99358.56;5073403;28;20032;-80
2021/06/03 17:36:15;;;;;;;0.40;0.40;;;;;;;19.79;51.32;99371.31;5072863;28;20082;-80
2021/06/03 17:38:41;;;;;;;0.28;0.28;;;;;;;19.79;51.94;99374.91;5072496;28;20111;-79
2021/06/03 17:41:07;;;;;;;0.93;0.68;;;;;;;19.48;53.43;99338.13;5072960;28;20449;-81
2021/06/03 17:43:35;;;;;;;1.55;0.73;;;;;;;19.54;55.04;99355.06;5076799;28;20028;-83
2021/06/03 17:46:01;;;;;;;1.00;0.47;;;;;;;19.56;55.51;99381.38;5079909;28;20058;-82
2021/06/03 17:48:26;;;;;;;0.20;0.20;;;;;;;19.48;55.63;99383.00;5079100;28;20056;-83
2021/06/03 17:50:53;;;;;;;0.75;0.57;;;;;;;19.44;55.65;99388.75;5079594;28;20062;-83
2021/06/03 17:53:20;;;;;;;0.20;0.20;;;;;;;19.08;55.65;99339.41;5078988;28;20540;-83
2021/06/03 17:55:49;;;;;;;0.20;0.20;;;;;;;19.06;56.47;99358.72;5077495;28;20020;-82
2021/06/03 17:58:17;;;;;;;0.20;0.20;;;;;;;19.11;56.47;99377.66;5078280;28;20033;-82
2021/06/03 18:00:43;;;;;;;0.10;0.10;;;;;;;19.12;56.63;99392.44;5077197;28;20036;-83
2021/06/03 18:03:13;;;;;;;0.30;0.30;;;;;;;19.14;57.52;99401.16;5076320;28;20025;-82
2021/06/03 18:05:40;;;;;;;0.38;0.38;;;;;;;18.92;56.95;99381.84;5075737;28;20036;-83
2021/06/03 18:08:07;;;;;;;0.13;0.13;;;;;;;18.88;57.96;99398.03;5078882;28;20101;-83
2021/06/03 18:10:38;;;;;;;0.35;0.35;;;;;;;18.59;57.57;99361.50;5076626;28;20492;-83
2021/06/03 18:13:05;;;;;;;0.60;0.60;;;;;;;18.46;58.06;99350.50;5079502;28;20032;-82
2021/06/03 18:15:32;;;;;;;0.40;0.40;;;;;;;18.40;57.91;99354.41;5078149;28;20037;-83
2021/06/03 18:17:58;;;;;;;0.30;0.30;;;;;;;18.09;58.59;99347.09;5079520;28;20032;-82
2021/06/03 18:20:26;;;;;;;0.17;0.17;;;;;;;17.82;58.85;99322.81;5085883;28;20066;-83
2021/06/03 18:22:53;;;;;;;0.90;0.50;;;;;;;17.66;61.89;99300.78;5092912;28;20056;-83
2021/06/03 18:25:20;;;;;;;0.30;0.30;;;;;;;17.66;64.46;99353.88;5089339;28;20008;-83
2021/06/03 18:27:47;;;;;;;0.70;0.70;;;;;;;17.58;66.19;99366.63;5083472;28;20040;-82
2021/06/03 18:30:17;;;;;;;0.35;0.35;;;;;;;17.79;65.67;99413.19;5080799;28;20047;-82
2021/06/03 18:32:42;;;;;;;0.10;0.10;;;;;;;17.15;64.62;99345.38;5078572;28;20013;-82
2021/06/03 18:35:10;;;;;;;0.65;0.65;;;;;;;17.12;63.96;99337.19;5079282;28;20132;-83
2021/06/03 18:37:36;;;;;;;0.20;0.20;;;;;;;17.11;65.02;99341.97;5081461;28;20032;-82
2021/06/03 18:40:03;;;;;;;0.63;0.63;;;;;;;17.14;61.13;99355.00;5074323;28;20021;-83
2021/06/03 18:42:29;;;;;;;0.63;0.63;;;;;;;17.12;60.72;99359.50;5077776;28;20032;-82
2021/06/03 18:44:54;;;;;;;0.52;0.52;;;;;;;17.24;59.63;99367.72;5074161;28;20503;-82
2021/06/03 18:47:20;;;;;;;0.75;0.75;;;;;;;17.63;59.89;99393.97;5074761;28;20020;-83
2021/06/03 18:49:46;;;;;;;0.70;0.65;;;;;;;17.35;60.81;99381.22;5082121;28;20158;-83
2021/06/03 18:52:15;;;;;;;0.52;0.52;;;;;;;17.53;62.90;99400.78;5082643;28;20043;-82
2021/06/03 18:54:41;;;;;;;0.30;0.30;;;;;;;17.56;62.29;99413.03;5083416;28;20040;-83
2021/06/03 18:57:07;;;;;;;2.65;1.27;;;;;;;17.32;63.00;99374.56;5077218;28;20032;-82
2021/06/03 18:59:33;;;;;;;0.30;0.30;;;;;;;17.39;63.94;99388.22;5076098;28;20029;-82
2021/06/03 19:02:00;;;;;;;0.30;0.30;;;;;;;17.33;63.69;99386.50;5076538;28;20028;-83
2021/06/03 19:04:47;;;;;;;1.20;1.02;;;;;;;17.26;62.73;99379.19;5078360;28;20019;-83
2021/06/03 19:07:12;;;;;;;13.25;2.50;;;;;;;17.30;63.48;99388.19;5076185;28;20041;-82
2021/06/03 19:09:39;;;;;;;0.32;0.32;;;;;;;17.81;59.86;99463.81;5083049;28;20031;-82
2021/06/03 19:12:06;;;;;;;0.23;0.23;;;;;;;17.21;60.63;99388.22;5074507;28;20142;-82
2021/06/03 19:14:31;;;;;;;0.28;0.28;;;;;;;17.25;61.85;99413.19;5083237;28;20052;-81
2021/06/03 19:16:58;;;;;;;0.38;0.35;;;;;;;17.19;61.30;99407.44;5078791;28;20065;-83
2021/06/03 19:19:24;;;;;;;3.25;0.52;;;;;;;17.80;61.13;99511.81;5076539;28;20016;-83
2021/06/03 19:21:49;;;;;;;0.47;0.47;;;;;;;17.10;61.93;99399.06;5077363;28;20453;-82
2021/06/03 19:24:15;;;;;;;0.22;0.22;;;;;;;17.74;61.45;99494.09;5082002;28;20021;-82
2021/06/03 19:26:41;;;;;;;0.65;0.65;;;;;;;17.03;62.51;99396.56;5092004;28;20021;-83
2021/06/03 19:29:07;;;;;;;1.10;0.95;;;;;;;16.77;63.81;99386.91;5080197;28;20024;-82
2021/06/03 19:31:34;;;;;;;2.10;0.50;;;;;;;16.86;64.58;99392.50;5083192;28;20086;-83
2021/06/03 19:34:00;;;;;;;0.20;0.20;;;;;;;17.04;64.51;99404.47;5076218;28;20036;-82
2021/06/03 19:36:26;;;;;;;1.13;0.80;;;;;;;17.26;65.60;99442.66;5075598;28;20028;-81
2021/06/03 19:38:52;;;;;;;0.35;0.35;;;;;;;17.46;65.29;99482.91;5075123;28;20036;-81
2021/06/03 19:41:18;;;;;;;0.65;0.65;;;;;;;17.20;64.94;99450.09;5075425;28;20087;-81
2021/06/03 19:43:44;;;;;;;0.65;0.30;;;;;;;17.54;63.87;99493.78;5074901;28;20024;-81
2021/06/03 19:46:10;;;;;;;0.65;0.52;;;;;;;17.25;63.78;99486.56;5076728;28;20031;-82
2021/06/03 19:48:36;;;;;;;0.17;0.17;;;;;;;17.14;63.64;99480.66;5075256;28;20052;-82
2021/06/03 19:51:02;;;;;;;6.95;4.10;;;;;;;16.80;63.81;99442.59;5076044;28;20028;-82
2021/06/03 19:53:28;;;;;;;5.63;1.80;;;;;;;17.01;63.47;99477.97;5075115;28;20157;-82
2021/06/03 19:55:54;;;;;;;3.53;2.30;;;;;;;16.92;62.71;99454.88;5075269;28;20024;-82
2021/06/03 19:58:22;;;;;;;0.65;0.63;;;;;;;17.13;65.02;99481.13;5075343;28;20506;-83
2021/06/03 20:00:53;;;;;;;3.43;3.13;;;;;;;16.53;66.47;99401.38;5075352;28;20021;-82
2021/06/03 20:03:20;;;;;;;3.67;3.33;;;;;;;17.00;62.10;99482.00;5075340;28;20325;-82
2021/06/03 20:05:46;;;;;;;0.22;0.22;;;;;;;16.75;62.11;99406.91;5078035;28;20071;-82
2021/06/03 20:08:12;;;;;;;0.57;0.57;;;;;;;17.24;63.24;99467.50;5077376;28;20032;-82
2021/06/03 20:10:42;;;;;;;7.22;0.93;;;;;;;16.99;64.02;99441.41;5075730;28;20051;-81
2021/06/03 20:13:09;;;;;;;0.25;0.25;;;;;;;16.80;63.30;99422.28;5075919;28;20025;-82
2021/06/03 20:15:35;;;;;;;4.63;1.15;;;;;;;16.96;62.72;99473.00;5075948;28;20033;-80
2021/06/03 20:18:00;;;;;;;2.72;0.90;;;;;;;17.20;61.10;99501.16;5075272;28;20033;-79
2021/06/03 20:20:27;;;;;;;2.92;0.80;;;;;;;17.22;60.93;99495.88;5074415;28;20029;-80
2021/06/03 20:22:52;;;;;;;0.20;0.20;;;;;;;17.18;60.15;99498.03;5074373;28;20503;-80
2021/06/03 20:25:21;;;;;;;0.20;0.20;;;;;;;16.75;61.34;99429.25;5074383;28;20115;-80
2021/06/03 20:27:47;;;;;;;1.15;1.10;;;;;;;16.97;63.05;99479.38;5074019;28;20028;-81
2021/06/03 20:30:15;;;;;;;3.92;1.08;;;;;;;16.91;63.86;99470.84;5074168;28;20028;-81
2021/06/03 20:32:41;;;;;;;0.40;0.40;;;;;;;16.70;64.78;99454.94;5074410;28;20048;-81
2021/06/03 20:35:08;;;;;;;0.30;0.30;;;;;;;16.94;64.84;99499.81;5074238;28;20059;-81
2021/06/03 20:37:34;;;;;;;0.35;0.35;;;;;;;16.81;64.21;99504.75;5075017;28;20020;-77
2021/06/03 20:40:00;;;;;;;6.10;0.45;;;;;;;16.56;65.22;99475.00;5074660;28;20054;-81
2021/06/03 20:42:26;;;;;;;0.20;0.20;;;;;;;16.65;63.62;99469.50;5075355;28;20028;-78
2021/06/03 20:44:52;;;;;;;1.40;0.60;;;;;;;16.88;62.74;99499.66;5076992;28;20103;-82
2021/06/03 20:47:18;;;;;;;0.30;0.30;;;;;;;16.65;63.92;99483.44;5076166;28;20093;-82
2021/06/03 20:49:44;;;;;;;0.40;0.40;;;;;;;16.81;63.63;99501.97;5079278;28;20503;-82
2021/06/03 20:52:09;;;;;;;0.55;0.50;;;;;;;16.82;65.01;99504.28;5081111;28;20086;-82
2021/06/03 20:54:35;;;;;;;0.20;0.20;;;;;;;16.10;65.14;99399.47;5084136;28;20089;-82
2021/06/03 20:57:02;;;;;;;0.15;0.15;;;;;;;15.87;66.20;99413.91;5078932;28;20016;-81
2021/06/03 20:59:27;;;;;;;1.60;0.70;;;;;;;15.92;68.23;99441.19;5081511;28;20029;-82
2021/06/03 21:01:56;;;;;;;0.38;0.38;;;;;;;15.54;69.59;99424.69;5081784;28;20029;-82
2021/06/03 21:04:22;;;;;;;0.30;0.30;;;;;;;15.12;70.89;99393.53;5081079;28;20427;-82
2021/06/03 21:06:48;;;;;;;1.90;0.40;;;;;;;15.29;69.06;99431.09;5078345;28;20115;-82
2021/06/03 21:09:14;;;;;;;0.60;0.60;;;;;;;15.11;69.42;99422.56;5076395;28;20056;-81
2021/06/03 21:11:40;;;;;;;0.93;0.88;;;;;;;15.06;69.52;99404.44;5077796;28;20040;-82
2021/06/03 21:14:07;;;;;;;0.63;0.63;;;;;;;14.96;69.19;99433.41;5078921;28;20041;-81
2021/06/03 21:16:35;;;;;;;0.40;0.40;;;;;;;14.90;68.50;99423.28;5076443;28;20037;-81
2021/06/03 21:19:03;;;;;;;0.47;0.47;;;;;;;15.28;68.66;99468.50;5073554;28;20028;-79
2021/06/03 21:21:31;;;;;;;0.55;0.55;;;;;;;15.39;69.90;99502.34;5073494;28;20029;-79
2021/06/03 21:23:57;;;;;;;0.98;0.88;;;;;;;15.31;71.83;99512.16;5073634;28;20039;-79
2021/06/03 21:26:22;;;;;;;2.80;0.63;;;;;;;15.18;71.40;99505.84;5073408;28;20032;-78
2021/06/03 21:28:48;;;;;;;0.70;0.65;;;;;;;15.15;71.69;99514.28;5073305;28;20028;-79
2021/06/03 21:31:14;;;;;;;2.60;1.10;;;;;;;14.99;71.52;99504.09;5073310;28;20152;-79
2021/06/03 21:33:39;;;;;;;0.30;0.30;;;;;;;14.95;71.10;99487.50;5073433;28;20033;-78
2021/06/03 21:36:06;;;;;;;1.85;0.73;;;;;;;14.81;72.37;99501.09;5073739;28;20035;-79
2021/06/03 21:38:33;;;;;;;0.98;0.98;;;;;;;14.58;73.29;99493.84;5073427;28;20090;-79
2021/06/03 21:40:59;;;;;;;0.45;0.45;;;;;;;14.61;73.47;99488.19;5073555;28;20538;-79
2021/06/03 21:43:25;;;;;;;0.45;0.45;;;;;;;14.40;74.13;99472.16;5073089;28;20033;-79
2021/06/03 21:45:50;;;;;;;0.90;0.50;;;;;;;14.57;74.53;99503.44;5073402;28;20444;-79
2021/06/03 21:48:17;;;;;;;0.77;0.77;;;;;;;14.32;74.74;99470.78;5075365;28;20028;-80
2021/06/03 21:50:42;;;;;;;0.50;0.50;;;;;;;14.47;74.52;99513.63;5076458;28;20047;-79
2021/06/03 21:53:08;;;;;;;0.15;0.15;;;;;;;13.95;75.18;99443.69;5076616;28;20475;-79
2021/06/03 21:55:34;;;;;;;0.50;0.50;;;;;;;14.33;75.27;99505.69;5076028;28;20031;-81
2021/06/03 21:58:00;;;;;;;1.30;0.30;;;;;;;13.98;75.28;99451.94;5075844;28;20028;-80
2021/06/03 22:00:35;;;;;;;1.23;1.13;;;;;;;14.27;75.64;99515.81;5076337;28;20024;-80
2021/06/03 22:03:05;;;;;;;0.90;0.90;;;;;;;14.21;75.64;99518.34;5076279;28;20042;-80
2021/06/03 22:05:31;;;;;;;0.93;0.93;;;;;;;13.99;76.66;99497.16;5076053;28;20031;-80
2021/06/03 22:07:57;;;;;;;0.77;0.77;;;;;;;13.77;76.52;99450.53;5076223;28;20130;-80
2021/06/03 22:10:24;;;;;;;0.30;0.30;;;;;;;13.94;76.59;99483.81;5076044;28;20503;-77
2021/06/03 22:12:51;;;;;;;0.32;0.32;;;;;;;13.81;78.27;99508.75;5076076;28;20027;-78
2021/06/03 22:15:17;;;;;;;0.22;0.22;;;;;;;13.69;79.12;99501.94;5075835;28;20024;-78
2021/06/03 22:17:44;;;;;;;0.10;0.10;;;;;;;13.43;80.49;99494.72;5075899;28;20396;-79
2021/06/03 22:20:14;;;;;;;0.20;0.20;;;;;;;13.37;81.06;99500.03;5076090;28;20056;-79
2021/06/03 22:22:40;;;;;;;0.55;0.55;;;;;;;13.44;80.29;99502.59;5076282;28;20055;-79
2021/06/03 22:25:11;;;;;;;1.30;0.63;;;;;;;13.27;80.82;99484.41;5075758;28;20479;-78
2021/06/03 22:27:36;;;;;;;2.67;1.35;;;;;;;13.31;80.78;99512.88;5075573;28;20040;-79
2021/06/03 22:30:05;;;;;;;7.97;1.17;;;;;;;13.05;81.16;99488.91;5075461;28;20033;-79
2021/06/03 22:32:31;;;;;;;0.50;0.50;;;;;;;13.14;81.62;99500.19;5075594;28;20471;-79
2021/06/03 22:34:56;;;;;;;0.20;0.20;;;;;;;13.01;82.38;99499.31;5075691;28;20030;-79
2021/06/03 22:37:22;;;;;;;1.05;1.05;;;;;;;12.60;83.26;99472.94;5075608;28;20475;-79
2021/06/03 22:39:47;;;;;;;0.30;0.30;;;;;;;12.69;83.67;99475.13;5075548;28;20028;-79
2021/06/03 22:42:13;;;;;;;0.30;0.30;;;;;;;12.71;83.25;99483.00;5076129;28;20059;-79
2021/06/03 22:44:39;;;;;;;0.13;0.13;;;;;;;12.86;83.40;99496.09;5075403;28;20032;-79
2021/06/03 22:47:04;;;;;;;0.28;0.28;;;;;;;12.87;83.87;99494.09;5076272;28;20028;-80
2021/06/03 22:49:30;;;;;;;1.08;1.05;;;;;;;12.72;83.85;99479.78;5075335;28;20419;-81
2021/06/03 22:51:55;;;;;;;0.63;0.63;;;;;;;12.69;84.01;99485.41;5076142;28;20041;-79
2021/06/03 22:54:23;;;;;;;0.20;0.20;;;;;;;12.70;84.48;99487.78;5075398;28;20024;-78
2021/06/03 22:56:52;;;;;;;0.20;0.20;;;;;;;12.69;84.05;99482.66;5075433;28;20548;-77
2021/06/03 22:59:21;;;;;;;0.35;0.35;;;;;;;12.63;84.13;99479.59;5075220;28;20119;-79
2021/06/03 23:01:48;;;;;;;0.20;0.20;;;;;;;12.41;85.08;99453.59;5075853;28;20036;-79
2021/06/03 23:04:26;;;;;;;0.30;0.30;;;;;;;12.52;85.32;99490.16;5075616;28;20119;-80
2021/06/03 23:06:54;;;;;;;0.20;0.20;;;;;;;12.49;84.92;99480.72;5075724;28;20496;-81
2021/06/03 23:09:20;;;;;;;0.63;0.63;;;;;;;12.35;84.69;99471.94;5075764;28;20132;-79
2021/06/03 23:11:49;;;;;;;0.40;0.40;;;;;;;12.14;85.29;99460.09;5078799;28;20255;-79
2021/06/03 23:14:18;;;;;;;0.40;0.40;;;;;;;12.29;84.60;99481.97;5079246;28;20072;-79
2021/06/03 23:16:45;;;;;;;0.20;0.20;;;;;;;12.19;85.19;99483.75;5079837;28;20028;-80
2021/06/03 23:19:11;;;;;;;0.45;0.45;;;;;;;12.13;85.78;99483.47;5079288;28;20035;-78
2021/06/03 23:21:38;;;;;;;0.40;0.40;;;;;;;12.04;85.88;99486.06;5079191;28;20032;-79
2021/06/03 23:24:05;;;;;;;2.10;0.93;;;;;;;11.71;86.72;99434.47;5078994;28;20063;-80
2021/06/03 23:26:34;;;;;;;0.30;0.30;;;;;;;11.97;86.63;99474.31;5078950;28;20028;-80
2021/06/03 23:29:04;;;;;;;0.15;0.15;;;;;;;11.90;86.60;99475.25;5079007;28;20020;-79
2021/06/03 23:31:30;;;;;;;0.43;0.25;;;;;;;11.42;87.43;99404.59;5078854;28;20032;-80
2021/06/03 23:33:55;;;;;;;0.93;0.88;;;;;;;11.49;87.22;99422.25;5078977;28;20031;-79
2021/06/03 23:36:21;;;;;;;0.60;0.60;;;;;;;11.85;87.20;99480.50;5079003;28;20544;-80
2021/06/03 23:38:46;;;;;;;0.20;0.20;;;;;;;11.64;87.18;99443.69;5078852;28;20027;-79
2021/06/03 23:41:12;;;;;;;0.20;0.20;;;;;;;12.04;85.94;99469.44;5079505;28;20503;-80
2021/06/03 23:43:38;;;;;;;0.32;0.32;;;;;;;12.11;85.83;99465.72;5079653;28;20480;-81
2021/06/03 23:46:03;;;;;;;1.45;0.65;;;;;;;11.87;85.35;99422.72;5081888;28;20457;-81
2021/06/03 23:48:29;;;;;;;0.40;0.40;;;;;;;11.99;85.50;99449.78;5079422;28;20503;-81
2021/06/03 23:50:55;;;;;;;1.55;0.90;;;;;;;11.58;83.64;99350.50;5080887;28;20046;-81
2021/06/03 23:53:20;;;;;;;0.90;0.90;;;;;;;11.90;83.36;99408.00;5079312;28;20028;-81
2021/06/03 23:55:46;;;;;;;1.48;1.38;;;;;;;12.22;82.33;99442.13;5080215;28;20036;-80
2021/06/03 23:58:11;;;;;;;0.50;0.50;;;;;;;11.98;82.78;99417.75;5078573;28;20040;-79
